createdAt,value
2022-12-05T00:01:40.351Z,71.51
2022-12-05T00:04:12.052Z,71.75
2022-12-05T00:06:41.822Z,71.77
2022-12-05T00:09:12.368Z,71.65
2022-12-05T00:11:44.068Z,71.73
2022-12-05T00:14:13.421Z,71.81
2022-12-05T00:16:43.720Z,71.96
2022-12-05T00:19:14.672Z,72.12
2022-12-05T00:21:42.890Z,72.18
2022-12-05T00:24:14.793Z,72.20
2022-12-05T00:26:43.567Z,72.29
2022-12-05T00:29:12.151Z,72.35
2022-12-05T00:31:40.562Z,72.48
2022-12-05T00:34:08.150Z,72.55
2022-12-05T00:36:37.295Z,72.55
2022-12-05T00:39:10.225Z,72.50
2022-12-05T00:41:38.484Z,72.58
2022-12-05T00:44:06.341Z,72.52
2022-12-05T00:46:35.681Z,72.58
2022-12-05T00:49:05.874Z,72.76
2022-12-05T00:51:40.416Z,72.91
2022-12-05T00:54:13.238Z,72.92
2022-12-05T00:56:41.995Z,72.86
2022-12-05T00:59:16.894Z,72.89
2022-12-05T01:01:46.646Z,72.92
2022-12-05T01:04:21.122Z,73.00
2022-12-05T01:06:50.929Z,73.16
2022-12-05T01:09:20.767Z,73.25
2022-12-05T01:11:49.684Z,73.25
2022-12-05T01:14:20.301Z,73.35
2022-12-05T01:16:50.541Z,73.28
2022-12-05T01:19:23.642Z,73.16
2022-12-05T01:21:52.717Z,73.26
2022-12-05T01:24:24.211Z,73.42
2022-12-05T01:26:53.739Z,73.32
2022-12-05T01:29:24.149Z,73.44
2022-12-05T01:31:55.342Z,73.36
2022-12-05T01:34:25.825Z,73.37
2022-12-05T01:36:53.835Z,73.54
2022-12-05T01:39:24.981Z,73.56
2022-12-05T01:41:54.259Z,73.77
2022-12-05T01:44:31.267Z,73.92
2022-12-05T01:47:02.718Z,73.91
2022-12-05T01:49:38.068Z,73.84
2022-12-05T01:52:23.122Z,73.81
2022-12-05T01:54:55.754Z,73.74
2022-12-05T01:57:25.088Z,73.68
2022-12-05T01:59:59.096Z,73.73
2022-12-05T02:02:28.201Z,73.57
2022-12-05T02:05:22.158Z,73.44
2022-12-05T02:07:49.924Z,73.42
2022-12-05T02:10:18.662Z,73.42
2022-12-05T02:12:46.945Z,73.48
2022-12-05T02:15:37.689Z,73.47
2022-12-05T02:18:52.217Z,73.51
2022-12-05T02:21:47.567Z,73.45
2022-12-05T02:25:12.500Z,73.43
2022-12-05T02:28:02.386Z,73.48
2022-12-05T02:30:40.162Z,73.41
2022-12-05T02:33:54.311Z,73.50
2022-12-05T02:36:35.948Z,73.50
2022-12-05T02:39:23.579Z,73.51
2022-12-05T02:42:02.239Z,73.38
2022-12-05T02:44:41.283Z,73.41
2022-12-05T02:47:09.938Z,73.34
2022-12-05T02:49:39.751Z,73.39
2022-12-05T02:52:11.356Z,73.42
2022-12-05T02:54:42.642Z,73.44
2022-12-05T02:57:12.187Z,73.35
2022-12-05T02:59:40.037Z,73.44
2022-12-05T03:02:33.649Z,73.41
2022-12-05T03:05:17.083Z,73.35
2022-12-05T03:07:48.912Z,73.43
2022-12-05T03:10:21.310Z,73.36
2022-12-05T03:12:56.122Z,73.34
2022-12-05T03:15:32.096Z,73.35
2022-12-05T03:18:12.631Z,73.38
2022-12-05T03:20:47.683Z,73.43
2022-12-05T03:23:31.275Z,73.42
2022-12-05T03:26:33.383Z,73.35
2022-12-05T03:29:12.222Z,73.23
2022-12-05T03:31:59.979Z,73.29
2022-12-05T03:34:54.061Z,73.35
2022-12-05T03:37:36.615Z,73.34
2022-12-05T03:40:12.424Z,73.43
2022-12-05T03:42:45.316Z,73.49
2022-12-05T03:45:18.612Z,73.51
2022-12-05T03:47:54.587Z,73.48
2022-12-05T03:50:28.722Z,73.48
2022-12-05T03:55:35.570Z,73.66
2022-12-05T03:58:11.955Z,73.69
2022-12-05T04:00:43.863Z,73.70
2022-12-05T04:03:20.033Z,73.65
2022-12-05T04:06:01.350Z,73.67
2022-12-05T04:08:37.039Z,73.71
2022-12-05T04:11:19.083Z,73.79
2022-12-05T04:13:54.075Z,73.80
2022-12-05T04:16:48.108Z,73.71
2022-12-05T04:19:50.317Z,73.67
2022-12-05T04:22:19.853Z,73.45
2022-12-05T04:25:07.942Z,73.49
2022-12-05T04:28:03.691Z,73.53
2022-12-05T04:31:11.443Z,73.61
2022-12-05T04:33:59.327Z,73.63
2022-12-05T04:36:43.524Z,73.74
2022-12-05T04:39:25.538Z,73.54
2022-12-05T04:42:04.300Z,73.19
2022-12-05T04:44:51.671Z,72.97
2022-12-05T04:47:22.613Z,72.79
2022-12-05T04:49:54.211Z,72.75
2022-12-05T04:52:22.465Z,72.59
2022-12-05T04:54:58.552Z,72.37
2022-12-05T04:57:31.017Z,72.64
2022-12-05T04:59:58.786Z,72.74
2022-12-05T05:02:34.888Z,72.72
2022-12-05T05:05:10.934Z,72.78
2022-12-05T05:07:50.649Z,72.89
2022-12-05T05:10:33.039Z,72.92
2022-12-05T05:13:00.528Z,73.07
2022-12-05T05:15:28.218Z,73.12
2022-12-05T05:17:55.777Z,73.29
2022-12-05T05:20:23.468Z,73.50
2022-12-05T05:22:54.353Z,73.74
2022-12-05T05:25:24.938Z,73.85
2022-12-05T05:27:55.651Z,73.98
2022-12-05T05:30:24.715Z,74.14
2022-12-05T05:32:54.024Z,74.24
2022-12-05T05:35:22.161Z,74.33
2022-12-05T05:37:49.764Z,74.38
2022-12-05T05:40:17.904Z,74.33
2022-12-05T05:42:48.224Z,74.19
2022-12-05T05:45:16.955Z,74.07
2022-12-05T05:47:45.056Z,73.97
2022-12-05T05:50:17.813Z,73.85
2022-12-05T05:52:42.001Z,73.84
2022-12-05T05:55:10.268Z,73.82
2022-12-05T05:57:37.734Z,73.68
2022-12-05T06:00:07.743Z,73.61
2022-12-05T06:02:36.187Z,73.57
2022-12-05T06:05:05.232Z,73.46
2022-12-05T06:07:32.671Z,73.47
2022-12-05T06:10:00.717Z,73.54
2022-12-05T06:12:28.772Z,73.63
2022-12-05T06:14:56.610Z,73.71
2022-12-05T06:17:24.192Z,73.84
2022-12-05T06:19:51.823Z,73.98
2022-12-05T06:22:19.148Z,74.04
2022-12-05T06:24:47.040Z,74.12
2022-12-05T06:27:14.624Z,74.12
2022-12-05T06:29:42.651Z,74.07
2022-12-05T06:32:10.101Z,74.01
2022-12-05T06:34:37.711Z,73.93
2022-12-05T06:37:05.365Z,73.96
2022-12-05T06:39:33.199Z,73.77
2022-12-05T06:42:00.944Z,73.77
2022-12-05T06:44:28.777Z,73.93
2022-12-05T06:46:56.197Z,74.04
2022-12-05T06:49:30.750Z,74.17
2022-12-05T06:51:55.557Z,74.29
2022-12-05T06:54:22.953Z,74.35
2022-12-05T06:56:50.680Z,74.32
2022-12-05T06:59:18.124Z,74.24
2022-12-05T07:01:46.543Z,74.19
2022-12-05T07:04:23.004Z,74.10
2022-12-05T07:06:51.829Z,74.17
2022-12-05T07:09:25.031Z,74.39
2022-12-05T07:11:52.538Z,74.25
2022-12-05T07:16:51.134Z,74.23
2022-12-05T07:19:18.641Z,74.03
2022-12-05T07:21:46.015Z,73.74
2022-12-05T07:24:13.568Z,73.61
2022-12-05T07:26:41.228Z,73.48
2022-12-05T07:29:10.347Z,73.41
2022-12-05T07:31:38.057Z,73.36
2022-12-05T07:34:05.639Z,73.25
2022-12-05T07:36:32.972Z,73.18
2022-12-05T07:39:00.639Z,73.19
2022-12-05T07:41:30.729Z,73.03
2022-12-05T07:44:00.060Z,73.05
2022-12-05T07:46:29.060Z,72.94
2022-12-05T07:48:57.604Z,72.87
2022-12-05T07:51:25.259Z,72.80
2022-12-05T07:53:52.937Z,72.84
2022-12-05T07:56:21.272Z,72.92
2022-12-05T07:58:50.209Z,73.01
2022-12-05T08:01:22.685Z,72.97
2022-12-05T08:03:52.865Z,72.96
2022-12-05T08:06:24.352Z,73.00
2022-12-05T08:08:54.066Z,73.03
2022-12-05T08:11:26.136Z,73.09
2022-12-05T08:13:54.310Z,73.16
2022-12-05T08:16:25.805Z,73.19
2022-12-05T08:19:05.453Z,73.21
2022-12-05T08:21:34.179Z,73.33
2022-12-05T08:24:07.870Z,73.33
2022-12-05T08:26:36.645Z,73.59
2022-12-05T08:29:11.188Z,73.71
2022-12-05T08:31:48.504Z,73.72
2022-12-05T08:34:19.517Z,73.42
2022-12-05T08:36:47.712Z,73.43
2022-12-05T08:39:18.472Z,73.27
2022-12-05T08:41:47.708Z,73.05
2022-12-05T08:44:16.582Z,73.09
2022-12-05T08:46:48.144Z,73.19
2022-12-05T08:49:17.306Z,73.18
2022-12-05T08:51:45.523Z,73.13
2022-12-05T08:54:13.165Z,73.11
2022-12-05T08:56:41.376Z,73.17
2022-12-05T08:59:08.761Z,73.18
2022-12-05T09:01:38.253Z,73.04
2022-12-05T09:04:07.345Z,72.65
2022-12-05T09:06:36.244Z,72.54
2022-12-05T09:09:07.851Z,72.90
2022-12-05T09:11:41.904Z,72.69
2022-12-05T09:14:09.531Z,72.30
2022-12-05T09:16:39.420Z,71.69
2022-12-05T09:19:20.350Z,71.45
2022-12-05T09:21:48.073Z,71.06
2022-12-05T09:24:15.812Z,70.60
2022-12-05T09:26:44.942Z,70.76
2022-12-05T09:29:17.053Z,70.66
2022-12-05T09:31:45.644Z,70.50
2022-12-05T09:34:14.398Z,70.38
2022-12-05T09:36:43.083Z,70.25
2022-12-05T09:39:11.182Z,70.27
2022-12-05T09:42:31.536Z,70.13
2022-12-05T09:45:19.788Z,70.06
2022-12-05T09:48:12.105Z,69.67
2022-12-05T09:51:01.539Z,69.84
2022-12-05T09:53:33.884Z,69.78
2022-12-05T09:56:15.226Z,69.43
2022-12-05T09:58:47.202Z,69.02
2022-12-05T10:01:32.546Z,67.90
2022-12-05T10:04:17.767Z,68.13
2022-12-05T10:07:11.973Z,68.49
2022-12-05T10:10:20.519Z,68.58
2022-12-05T10:13:21.181Z,68.67
2022-12-05T10:15:57.260Z,69.00
2022-12-05T10:18:55.571Z,69.12
2022-12-05T10:21:30.863Z,69.21
2022-12-05T10:24:02.525Z,68.84
2022-12-05T10:26:37.060Z,68.71
2022-12-05T10:29:13.042Z,68.76
2022-12-05T10:31:42.871Z,68.91
2022-12-05T10:34:25.452Z,69.06
2022-12-05T10:37:01.376Z,68.90
2022-12-05T10:39:28.936Z,68.89
2022-12-05T10:41:56.571Z,68.83
2022-12-05T10:44:24.861Z,69.00
2022-12-05T10:46:52.630Z,68.77
2022-12-05T10:49:21.745Z,68.53
2022-12-05T10:51:50.317Z,68.30
2022-12-05T10:54:28.157Z,68.02
2022-12-05T10:56:55.974Z,67.90
2022-12-05T10:59:28.025Z,67.52
2022-12-05T11:01:58.649Z,67.49
2022-12-05T11:04:43.593Z,67.67
2022-12-05T11:07:31.974Z,67.56
2022-12-05T11:10:04.012Z,67.17
2022-12-05T11:12:38.499Z,67.38
2022-12-05T11:15:24.906Z,67.32
2022-12-05T11:17:55.584Z,67.13
2022-12-05T11:20:28.474Z,67.17
2022-12-05T11:22:58.662Z,67.06
2022-12-05T11:25:31.437Z,67.15
2022-12-05T11:28:15.925Z,66.91
2022-12-05T11:31:16.187Z,66.90
2022-12-05T11:33:49.321Z,66.41
2022-12-05T11:36:23.876Z,66.15
2022-12-05T11:38:52.349Z,65.95
2022-12-05T11:41:40.343Z,65.87
2022-12-05T11:44:25.637Z,66.05
2022-12-05T11:47:33.839Z,66.25
2022-12-05T11:50:36.918Z,66.34
2022-12-05T11:53:19.031Z,66.26
2022-12-05T11:56:04.052Z,66.10
2022-12-05T11:59:02.804Z,66.24
2022-12-05T12:02:09.251Z,66.31
2022-12-05T12:05:06.735Z,66.67
2022-12-05T12:08:14.811Z,66.69
2022-12-05T12:11:24.565Z,66.71
2022-12-05T12:14:09.806Z,66.67
2022-12-05T12:17:00.681Z,66.83
2022-12-05T12:19:57.240Z,66.90
2022-12-05T12:22:36.135Z,66.93
2022-12-05T12:25:22.372Z,66.88
2022-12-05T12:28:10.401Z,66.97
2022-12-05T12:31:03.453Z,67.29
2022-12-05T12:33:45.790Z,67.26
2022-12-05T12:36:40.003Z,67.29
2022-12-05T12:39:29.913Z,67.12
2022-12-05T12:42:23.822Z,67.14
2022-12-05T12:45:06.082Z,67.22
2022-12-05T12:48:03.101Z,67.15
2022-12-05T12:50:36.599Z,66.70
2022-12-05T12:53:32.729Z,66.24
2022-12-05T12:56:11.459Z,65.76
2022-12-05T12:59:23.230Z,65.55
2022-12-05T13:02:25.471Z,65.79
2022-12-05T13:05:23.093Z,66.12
2022-12-05T13:08:19.142Z,66.32
2022-12-05T13:10:48.908Z,66.42
2022-12-05T13:13:27.458Z,66.44
2022-12-05T13:16:00.261Z,66.42
2022-12-05T13:18:28.388Z,66.51
2022-12-05T13:21:00.865Z,66.19
2022-12-05T13:23:32.944Z,66.13
2022-12-05T13:26:04.966Z,66.11
2022-12-05T13:28:55.605Z,66.21
2022-12-05T13:31:42.055Z,66.36
2022-12-05T13:34:34.698Z,66.50
2022-12-05T13:37:31.770Z,66.53
2022-12-05T13:40:17.861Z,66.49
2022-12-05T13:42:48.071Z,66.35
2022-12-05T13:45:20.064Z,66.63
2022-12-05T13:47:56.597Z,66.68
2022-12-05T13:50:45.376Z,66.76
2022-12-05T13:53:39.238Z,66.87
2022-12-05T13:56:20.965Z,66.81
2022-12-05T13:58:57.254Z,66.88
2022-12-05T14:01:48.973Z,66.82
2022-12-05T14:04:47.527Z,66.89
2022-12-05T14:07:36.439Z,66.87
2022-12-05T14:10:05.531Z,66.77
2022-12-05T14:12:53.568Z,66.85
2022-12-05T14:15:38.234Z,66.90
2022-12-05T14:18:20.188Z,66.92
2022-12-05T14:21:05.231Z,67.00
2022-12-05T14:24:10.629Z,67.08
2022-12-05T14:26:59.617Z,66.92
2022-12-05T14:30:08.839Z,67.02
2022-12-05T14:32:41.704Z,67.05
2022-12-05T14:35:33.667Z,67.31
2022-12-05T14:38:06.457Z,67.49
2022-12-05T14:40:37.956Z,67.66
2022-12-05T14:43:27.838Z,67.70
2022-12-05T14:46:03.378Z,67.79
2022-12-05T14:48:47.297Z,67.99
2022-12-05T14:51:35.533Z,68.03
2022-12-05T14:54:16.394Z,67.86
2022-12-05T14:56:54.952Z,67.94
2022-12-05T14:59:51.761Z,68.22
2022-12-05T15:02:27.151Z,68.48
2022-12-05T15:05:27.137Z,68.72
2022-12-05T15:07:58.861Z,68.82
2022-12-05T15:10:42.515Z,68.93
2022-12-05T15:13:17.373Z,69.04
2022-12-05T15:16:05.802Z,69.15
2022-12-05T15:18:57.305Z,69.22
2022-12-05T15:21:43.162Z,69.22
2022-12-05T15:24:17.189Z,69.37
2022-12-05T15:26:52.798Z,69.51
2022-12-05T15:29:25.924Z,69.47
2022-12-05T15:32:19.722Z,69.56
2022-12-05T15:35:09.431Z,69.55
2022-12-05T15:37:57.127Z,69.75
2022-12-05T15:40:25.698Z,69.78
2022-12-05T15:42:56.077Z,69.86
2022-12-05T15:45:29.473Z,69.83
2022-12-05T15:48:11.336Z,69.86
2022-12-05T15:50:49.296Z,69.75
2022-12-05T15:53:46.422Z,69.67
2022-12-05T15:56:21.898Z,69.67
2022-12-05T15:59:18.845Z,69.80
2022-12-05T16:01:52.177Z,69.71
2022-12-05T16:04:29.408Z,69.85
2022-12-05T16:06:56.292Z,69.91
2022-12-05T16:09:31.393Z,69.99
2022-12-05T16:12:28.868Z,70.02
2022-12-05T16:15:01.945Z,70.02
2022-12-05T16:17:40.106Z,70.04
2022-12-05T16:20:31.536Z,70.00
2022-12-05T16:23:07.702Z,70.12
2022-12-05T16:25:36.970Z,70.20
2022-12-05T16:28:16.164Z,70.30
2022-12-05T16:31:02.047Z,70.43
2022-12-05T16:33:31.669Z,70.50
2022-12-05T16:36:13.607Z,70.60
2022-12-05T16:38:42.679Z,70.63
2022-12-05T16:41:12.006Z,70.63
2022-12-05T16:43:44.812Z,70.62
2022-12-05T16:46:19.829Z,70.61
2022-12-05T16:49:08.073Z,70.55
2022-12-05T16:51:45.335Z,70.54
2022-12-05T16:54:12.765Z,70.58
2022-12-05T16:56:41.633Z,70.66
2022-12-05T16:59:14.131Z,70.73
2022-12-05T17:01:41.837Z,70.76
2022-12-05T17:04:11.286Z,70.75
2022-12-05T17:06:39.267Z,70.75
2022-12-05T17:09:06.848Z,70.89
2022-12-05T17:11:38.341Z,70.97
2022-12-05T17:14:10.762Z,71.13
2022-12-05T17:16:38.631Z,71.12
2022-12-05T17:19:06.379Z,71.17
2022-12-05T17:21:35.197Z,71.28
2022-12-05T17:24:03.335Z,71.30
2022-12-05T17:26:31.478Z,71.29
2022-12-05T17:28:58.955Z,71.21
2022-12-05T17:31:26.545Z,71.34
2022-12-05T17:33:56.611Z,71.41
2022-12-05T17:36:24.144Z,71.46
2022-12-05T17:38:51.940Z,71.31
2022-12-05T17:41:23.295Z,71.21
2022-12-05T17:43:52.359Z,71.24
2022-12-05T17:46:23.234Z,71.21
2022-12-05T17:48:51.950Z,71.24
2022-12-05T17:51:20.495Z,71.28
2022-12-05T17:53:48.571Z,71.33
2022-12-05T17:56:16.689Z,71.41
2022-12-05T17:58:44.768Z,71.42
2022-12-05T18:01:19.067Z,71.52
2022-12-05T18:03:48.328Z,71.49
2022-12-05T18:06:16.955Z,71.55
2022-12-05T18:08:45.310Z,71.62
2022-12-05T18:11:14.318Z,71.70
2022-12-05T18:13:42.166Z,71.71
2022-12-05T18:16:10.566Z,71.63
2022-12-05T18:18:39.025Z,71.50
2022-12-05T18:21:11.109Z,71.71
2022-12-05T18:23:40.188Z,71.86
2022-12-05T18:26:10.322Z,71.91
2022-12-05T18:28:41.203Z,71.91
2022-12-05T18:31:14.819Z,71.95
2022-12-05T18:33:44.504Z,71.97
2022-12-05T18:36:17.255Z,72.02
2022-12-05T18:38:54.973Z,72.17
2022-12-05T18:41:25.939Z,72.40
2022-12-05T18:43:54.379Z,72.53
2022-12-05T18:46:22.161Z,72.71
2022-12-05T18:48:49.713Z,72.90
2022-12-05T18:51:23.474Z,73.06
2022-12-05T18:53:53.840Z,73.25
2022-12-05T18:56:26.549Z,73.27
2022-12-05T18:59:04.235Z,73.39
2022-12-05T19:01:35.542Z,73.42
2022-12-05T19:04:05.923Z,73.48
2022-12-05T19:06:39.312Z,73.46
2022-12-05T19:09:11.942Z,73.51
2022-12-05T19:11:47.704Z,73.64
2022-12-05T19:14:20.822Z,73.76
2022-12-05T19:16:57.869Z,73.90
2022-12-05T19:19:21.506Z,73.93
2022-12-05T19:21:48.930Z,73.94
2022-12-05T19:24:19.018Z,73.86
2022-12-05T19:26:47.694Z,73.93
2022-12-05T19:29:16.141Z,73.70
2022-12-05T19:31:44.706Z,73.56
2022-12-05T19:34:12.696Z,73.60
2022-12-05T19:36:44.123Z,73.33
2022-12-05T19:39:23.559Z,73.02
2022-12-05T19:41:51.762Z,72.70
2022-12-05T19:44:19.389Z,72.32
2022-12-05T19:46:49.126Z,72.26
2022-12-05T19:49:16.977Z,72.11
2022-12-05T19:51:45.914Z,72.12
2022-12-05T19:54:16.827Z,72.09
2022-12-05T19:56:45.075Z,72.03
2022-12-05T19:59:16.842Z,71.80
2022-12-05T20:01:45.095Z,71.80
2022-12-05T20:04:16.956Z,71.76
2022-12-05T20:06:48.174Z,71.73
2022-12-05T20:09:18.993Z,71.80
2022-12-05T20:11:55.244Z,71.89
2022-12-05T20:14:21.080Z,71.97
2022-12-05T20:16:49.740Z,72.11
2022-12-05T20:19:17.630Z,72.12
2022-12-05T20:21:45.172Z,72.23
2022-12-05T20:24:12.719Z,72.36
2022-12-05T20:26:43.805Z,72.39
2022-12-05T20:29:12.026Z,72.57
2022-12-05T20:31:43.448Z,72.79
2022-12-05T20:34:13.128Z,72.85
2022-12-05T20:36:41.271Z,72.92
2022-12-05T20:39:13.349Z,73.00
2022-12-05T20:41:41.245Z,73.09
2022-12-05T20:44:13.435Z,73.15
2022-12-05T20:46:41.567Z,73.19
2022-12-05T20:49:12.095Z,73.24
2022-12-05T20:51:43.771Z,73.19
2022-12-05T20:54:12.718Z,73.23
2022-12-05T20:56:40.894Z,73.28
2022-12-05T20:59:11.652Z,73.37
2022-12-05T21:01:40.603Z,73.37
2022-12-05T21:04:10.338Z,73.40
2022-12-05T21:06:42.328Z,73.34
2022-12-05T21:09:12.867Z,73.32
2022-12-05T21:11:41.619Z,73.28
2022-12-05T21:14:09.219Z,73.24
2022-12-05T21:16:37.223Z,73.21
2022-12-05T21:19:04.859Z,73.12
2022-12-05T21:21:33.541Z,73.04
2022-12-05T21:24:03.437Z,73.00
2022-12-05T21:26:34.205Z,72.91
2022-12-05T21:29:03.736Z,72.90
2022-12-05T21:31:41.763Z,73.00
2022-12-05T21:34:16.654Z,72.91
2022-12-05T21:36:45.021Z,72.91
2022-12-05T21:39:13.650Z,72.91
2022-12-05T21:41:41.424Z,72.94
2022-12-05T21:44:09.296Z,72.97
2022-12-05T21:46:37.103Z,73.03
2022-12-05T21:49:05.158Z,73.08
2022-12-05T21:51:33.045Z,73.19
2022-12-05T21:54:00.739Z,73.27
2022-12-05T21:56:28.933Z,73.42
2022-12-05T21:58:56.628Z,73.47
2022-12-05T22:01:27.128Z,73.42
2022-12-05T22:04:00.322Z,73.45
2022-12-05T22:06:33.857Z,73.50
2022-12-05T22:09:02.447Z,73.52
2022-12-05T22:11:30.651Z,73.58
2022-12-05T22:13:58.514Z,73.59
2022-12-05T22:16:32.361Z,73.60
2022-12-05T22:18:55.528Z,73.59
2022-12-05T22:21:23.507Z,73.62
2022-12-05T22:23:50.925Z,73.60
2022-12-05T22:26:22.492Z,73.61
2022-12-05T22:28:52.673Z,73.70
2022-12-05T22:31:21.612Z,73.71
2022-12-05T22:33:49.599Z,73.80
2022-12-05T22:36:19.180Z,73.85
2022-12-05T22:38:48.059Z,73.96
2022-12-05T22:41:23.593Z,74.02
2022-12-05T22:43:56.159Z,74.08
2022-12-05T22:46:26.089Z,74.15
2022-12-05T22:48:53.910Z,74.14
2022-12-05T22:51:22.883Z,74.20
2022-12-05T22:53:52.084Z,74.40
2022-12-05T22:56:22.720Z,74.57
2022-12-05T22:58:58.136Z,74.45
2022-12-05T23:01:31.096Z,74.24
2022-12-05T23:04:05.309Z,74.06
2022-12-05T23:06:34.977Z,73.95
2022-12-05T23:09:06.271Z,73.78
2022-12-05T23:11:34.428Z,73.65
2022-12-05T23:14:02.806Z,73.46
2022-12-05T23:16:33.070Z,73.28
2022-12-05T23:19:04.169Z,73.33
2022-12-05T23:21:37.116Z,73.28
2022-12-05T23:24:09.490Z,73.28
2022-12-05T23:26:43.671Z,73.21
2022-12-05T23:29:12.785Z,73.20
2022-12-05T23:31:41.454Z,73.22
2022-12-05T23:34:09.589Z,73.34
2022-12-05T23:36:37.789Z,73.46
2022-12-05T23:39:05.392Z,73.58
2022-12-05T23:41:33.681Z,73.72
2022-12-05T23:44:03.101Z,73.85
2022-12-05T23:46:31.239Z,74.01
2022-12-05T23:48:58.926Z,74.14
2022-12-05T23:51:30.667Z,74.27
2022-12-05T23:54:00.952Z,74.50
2022-12-05T23:56:32.400Z,74.64
2022-12-05T23:59:02.038Z,74.74
